San Fermin Berria — EBVW — position and weather

sailwx.info

Track history (hours):
 
Tides and Currents Weather Stations Pressure Air Temp Water Temp Dewpoint Dewpoint Depression Visibility Wind Speed Wind Dir Waves Ship Positions

San Fermin Berria

Last reported at 2014-Jul-22 21:33 UTC. Time now 2014-Jul-22 21:37 UTC.
Position N 43°23' W 001°48'.

Length 30 m.

Type: Fishing. MMSI: 224114650.

Date/timePositionNaut miles runAvg speedWind from/ knotsBaromVisibWave heightAir tempDewpointWater temp
2014-Jul-22 21:33N 43°23' W 001°48'0 0.1
2014-Jul-22 20:33N 43°23' W 001°47'1 1.4
2014-Jul-22 19:32N 43°25' W 001°48'164 4.3
2014-Jul-21 05:08N 43°46' W 005°33'5 8.5
2014-Jul-21 04:32N 43°41' W 005°35'8 7.6
2014-Jul-21 03:32N 43°34' W 005°40'2 1.8
2014-Jul-21 02:33N 43°33' W 005°42'0 0.0
2014-Jul-21 01:33N 43°33' W 005°42'0 0.0
2014-Jul-21 00:33N 43°33' W 005°42'0 0.0
2014-Jul-20 23:33N 43°33' W 005°42'0 0.0
2014-Jul-20 22:33N 43°33' W 005°42'0 0.0
2014-Jul-20 21:33N 43°33' W 005°42'0 0.0
2014-Jul-20 20:33N 43°33' W 005°42'0 0.0
2014-Jul-20 19:33N 43°33' W 005°42'0 0.0
2014-Jul-20 18:33N 43°33' W 005°42'0 0.0
2014-Jul-20 17:33N 43°33' W 005°42'0 0.0
2014-Jul-20 16:33N 43°33' W 005°42'0 0.0
2014-Jul-20 15:33N 43°33' W 005°42'0 0.0
2014-Jul-20 14:33N 43°33' W 005°42'0 0.0
2014-Jul-20 13:33N 43°33' W 005°42'0 0.0
2014-Jul-20 12:33N 43°33' W 005°42'0 0.0
2014-Jul-20 11:33N 43°33' W 005°42'0 0.0
2014-Jul-20 10:33N 43°33' W 005°42'0 0.0
2014-Jul-20 09:33N 43°33' W 005°42'0 0.0
2014-Jul-20 08:33N 43°33' W 005°42'0 0.4
2014-Jul-20 07:33N 43°34' W 005°41'4 3.8
2014-Jul-20 06:33N 43°37' W 005°45'0 0.0
2014-Jul-20 05:33N 43°37' W 005°45'0 0.0
2014-Jul-20 04:33N 43°37' W 005°45'0 0.0
2014-Jul-20 01:24N 43°37' W 005°45'0 0.1
2014-Jul-20 00:30N 43°37' W 005°45'0 0.0
2014-Jul-19 23:33N 43°37' W 005°45'0 0.0
2014-Jul-19 22:07N 43°37' W 005°45'0 0.2
2014-Jul-19 21:33N 43°36' W 005°45'0 0.0
2014-Jul-19 20:33N 43°36' W 005°45'0 0.0
2014-Jul-19 17:23N 43°36' W 005°45'0 0.0
2014-Jul-19 16:25N 43°36' W 005°45'0 0.2
2014-Jul-19 15:33N 43°37' W 005°45'10 4.1
2014-Jul-19 13:06N 43°42' W 005°56'10 2.3
2014-Jul-19 08:33N 43°36' W 005°45'0 0.0
2014-Jul-19 07:22N 43°36' W 005°45'0 0.0
2014-Jul-19 06:26N 43°36' W 005°45'0 0.0
2014-Jul-19 05:33N 43°36' W 005°45'11 5.3
2014-Jul-19 03:29N 43°46' W 005°53'107 3.1
2014-Jul-17 16:27N 45°33' W 005°43'2 2.0
2014-Jul-17 15:33N 45°34' W 005°45'11 5.5
2014-Jul-17 13:33N 45°44' W 005°50'  
2014-Jul-14 17:09N 43°42' W 005°49'6 8.4
2014-Jul-14 16:29N 43°37' W 005°45'1 1.0
2014-Jul-14 15:32N 43°37' W 005°45'0 0.0
2014-Jul-14 14:33N 43°36' W 005°45'0 0.0
2014-Jul-14 13:24N 43°36' W 005°45'0 0.0
2014-Jul-14 12:33N 43°36' W 005°45'0 0.0
2014-Jul-14 11:32N 43°36' W 005°45'0 0.0
2014-Jul-14 10:06N 43°37' W 005°45'0 0.0
2014-Jul-14 09:29N 43°37' W 005°45'0 0.1
2014-Jul-14 05:32N 43°37' W 005°45'3 0.4
2014-Jul-13 22:23N 43°40' W 005°47'4 4.2
2014-Jul-13 21:31N 43°36' W 005°45'0 0.0
2014-Jul-13 20:18N 43°36' W 005°45'0 0.0
2014-Jul-13 19:32N 43°36' W 005°45'0 0.0
2014-Jul-13 18:33N 43°36' W 005°45'0 0.0
2014-Jul-13 17:33N 43°36' W 005°45'0 0.0
2014-Jul-13 16:33N 43°36' W 005°45'0 0.0
2014-Jul-13 15:32N 43°36' W 005°45'0 0.0
2014-Jul-13 14:32N 43°36' W 005°45'0 0.0
2014-Jul-13 13:21N 43°36' W 005°45'0 0.0
2014-Jul-13 12:32N 43°36' W 005°45'3 2.6
2014-Jul-13 11:32N 43°39' W 005°47'13 5.2
2014-Jul-13 09:06N 43°44' W 005°31'4 7.6
2014-Jul-13 08:32N 43°44' W 005°25'  
Track history (hours):
 
Tides and Currents Weather Stations Pressure Air Temp Water Temp Dewpoint Dewpoint Depression Visibility Wind Speed Wind Dir Waves Ship Positions

San Fermin Berria

Last reported at 2014-Jul-22 21:33 UTC. Time now 2014-Jul-22 21:37 UTC.
Position N 43°23' W 001°48'.

Length 30 m.

Type: Fishing. MMSI: 224114650.

Date/timePositionNaut miles runAvg speedWind from/ knotsBaromVisibWave heightAir tempDewpointWater temp
2014-Jul-22 21:33N 43°23' W 001°48'0 0.1
2014-Jul-22 20:33N 43°23' W 001°47'1 1.4
2014-Jul-22 19:32N 43°25' W 001°48'164 4.3
2014-Jul-21 05:08N 43°46' W 005°33'5 8.5
2014-Jul-21 04:32N 43°41' W 005°35'8 7.6
2014-Jul-21 03:32N 43°34' W 005°40'2 1.8
2014-Jul-21 02:33N 43°33' W 005°42'0 0.0
2014-Jul-21 01:33N 43°33' W 005°42'0 0.0
2014-Jul-21 00:33N 43°33' W 005°42'0 0.0
2014-Jul-20 23:33N 43°33' W 005°42'0 0.0
2014-Jul-20 22:33N 43°33' W 005°42'0 0.0
2014-Jul-20 21:33N 43°33' W 005°42'0 0.0
2014-Jul-20 20:33N 43°33' W 005°42'0 0.0
2014-Jul-20 19:33N 43°33' W 005°42'0 0.0
2014-Jul-20 18:33N 43°33' W 005°42'0 0.0
2014-Jul-20 17:33N 43°33' W 005°42'0 0.0
2014-Jul-20 16:33N 43°33' W 005°42'0 0.0
2014-Jul-20 15:33N 43°33' W 005°42'0 0.0
2014-Jul-20 14:33N 43°33' W 005°42'0 0.0
2014-Jul-20 13:33N 43°33' W 005°42'0 0.0
2014-Jul-20 12:33N 43°33' W 005°42'0 0.0
2014-Jul-20 11:33N 43°33' W 005°42'0 0.0
2014-Jul-20 10:33N 43°33' W 005°42'0 0.0
2014-Jul-20 09:33N 43°33' W 005°42'0 0.0
2014-Jul-20 08:33N 43°33' W 005°42'0 0.4
2014-Jul-20 07:33N 43°34' W 005°41'4 3.8
2014-Jul-20 06:33N 43°37' W 005°45'0 0.0
2014-Jul-20 05:33N 43°37' W 005°45'0 0.0
2014-Jul-20 04:33N 43°37' W 005°45'0 0.0
2014-Jul-20 01:24N 43°37' W 005°45'0 0.1
2014-Jul-20 00:30N 43°37' W 005°45'0 0.0
2014-Jul-19 23:33N 43°37' W 005°45'0 0.0
2014-Jul-19 22:07N 43°37' W 005°45'0 0.2
2014-Jul-19 21:33N 43°36' W 005°45'0 0.0
2014-Jul-19 20:33N 43°36' W 005°45'0 0.0
2014-Jul-19 17:23N 43°36' W 005°45'0 0.0
2014-Jul-19 16:25N 43°36' W 005°45'0 0.2
2014-Jul-19 15:33N 43°37' W 005°45'10 4.1
2014-Jul-19 13:06N 43°42' W 005°56'10 2.3
2014-Jul-19 08:33N 43°36' W 005°45'0 0.0
2014-Jul-19 07:22N 43°36' W 005°45'0 0.0
2014-Jul-19 06:26N 43°36' W 005°45'0 0.0
2014-Jul-19 05:33N 43°36' W 005°45'11 5.3
2014-Jul-19 03:29N 43°46' W 005°53'107 3.1
2014-Jul-17 16:27N 45°33' W 005°43'2 2.0
2014-Jul-17 15:33N 45°34' W 005°45'11 5.5
2014-Jul-17 13:33N 45°44' W 005°50'  
2014-Jul-14 17:09N 43°42' W 005°49'6 8.4
2014-Jul-14 16:29N 43°37' W 005°45'1 1.0
2014-Jul-14 15:32N 43°37' W 005°45'0 0.0
2014-Jul-14 14:33N 43°36' W 005°45'0 0.0
2014-Jul-14 13:24N 43°36' W 005°45'0 0.0
2014-Jul-14 12:33N 43°36' W 005°45'0 0.0
2014-Jul-14 11:32N 43°36' W 005°45'0 0.0
2014-Jul-14 10:06N 43°37' W 005°45'0 0.0
2014-Jul-14 09:29N 43°37' W 005°45'0 0.1
2014-Jul-14 05:32N 43°37' W 005°45'3 0.4
2014-Jul-13 22:23N 43°40' W 005°47'4 4.2
2014-Jul-13 21:31N 43°36' W 005°45'0 0.0
2014-Jul-13 20:18N 43°36' W 005°45'0 0.0
2014-Jul-13 19:32N 43°36' W 005°45'0 0.0
2014-Jul-13 18:33N 43°36' W 005°45'0 0.0
2014-Jul-13 17:33N 43°36' W 005°45'0 0.0
2014-Jul-13 16:33N 43°36' W 005°45'0 0.0
2014-Jul-13 15:32N 43°36' W 005°45'0 0.0
2014-Jul-13 14:32N 43°36' W 005°45'0 0.0
2014-Jul-13 13:21N 43°36' W 005°45'0 0.0
2014-Jul-13 12:32N 43°36' W 005°45'3 2.6
2014-Jul-13 11:32N 43°39' W 005°47'13 5.2
2014-Jul-13 09:06N 43°44' W 005°31'4 7.6
2014-Jul-13 08:32N 43°44' W 005°25'  

Dump ship's entire track history